Time;durP1;ratioP1;P1;durP2;ratioP2;P2;SDS_P1;SDS_P2;PMS_P1;PMS_P2;Temp;Humidity;BMP_temperature;BMP_pressure;BME280_temperature;BME280_humidity;BME280_pressure;Samples;Min_cycle;Max_cycle;Signal;HPM_P1;HPM_P2
2022/09/25 00:01:25;;;;;;;4.35;2.00;;;10.30;99.90;;;;;;5059925;28;20460;-66
2022/09/25 00:03:50;;;;;;;3.53;2.03;;;10.30;99.90;;;;;;5055749;28;20043;-66
2022/09/25 00:06:20;;;;;;;3.60;1.67;;;10.20;99.90;;;;;;5055322;28;20064;-66
2022/09/25 00:08:46;;;;;;;4.38;2.30;;;10.20;99.90;;;;;;5054835;28;20432;-66
2022/09/25 00:11:18;;;;;;;3.88;1.88;;;10.10;99.90;;;;;;5055672;28;20039;-66
2022/09/25 00:13:44;;;;;;;3.47;2.10;;;10.10;99.90;;;;;;5055484;28;20029;-66
2022/09/25 00:16:12;;;;;;;7.35;1.90;;;10.00;99.90;;;;;;5054765;28;20041;-66
2022/09/25 00:21:28;;;;;;;8.30;1.90;;;9.90;99.90;;;;;;5055280;28;20044;-66
2022/09/25 00:23:53;;;;;;;5.38;2.38;;;9.80;99.90;;;;;;5054567;28;20418;-66
2022/09/25 00:26:19;;;;;;;4.45;2.90;;;9.80;99.90;;;;;;5055138;28;20084;-66
2022/09/25 00:28:45;;;;;;;4.50;2.00;;;9.80;99.90;;;;;;5054554;28;20033;-66
2022/09/25 00:31:18;;;;;;;9.15;2.55;;;9.70;99.90;;;;;;5055157;28;20172;-66
2022/09/25 00:33:43;;;;;;;4.95;2.28;;;9.70;99.90;;;;;;5054871;28;20466;-66
2022/09/25 00:36:10;;;;;;;7.38;2.00;;;9.70;99.90;;;;;;5054390;28;20094;-66
2022/09/25 00:38:37;;;;;;;7.53;2.42;;;9.70;99.90;;;;;;5054503;28;20476;-66
2022/09/25 00:41:05;;;;;;;6.47;2.20;;;9.60;99.90;;;;;;5054649;28;20021;-67
2022/09/25 00:43:47;;;;;;;8.75;2.25;;;9.60;99.90;;;;;;5053957;28;20491;-66
2022/09/25 00:46:17;;;;;;;3.47;2.00;;;9.60;99.90;;;;;;5054942;28;20021;-66
2022/09/25 00:49:13;;;;;;;8.55;3.15;;;9.50;99.90;;;;;;5054710;28;20040;-66
2022/09/25 00:51:41;;;;;;;3.55;2.00;;;9.50;99.90;;;;;;5053994;28;20029;-66
2022/09/25 00:54:14;;;;;;;5.78;2.55;;;9.40;99.90;;;;;;5054474;28;20048;-66
2022/09/25 00:56:43;;;;;;;8.23;2.63;;;9.40;99.90;;;;;;5054204;28;20408;-66
2022/09/25 00:59:14;;;;;;;4.47;2.03;;;9.40;99.90;;;;;;5054134;28;20025;-66
2022/09/25 01:01:40;;;;;;;4.20;2.33;;;9.40;99.90;;;;;;5054519;28;20040;-66
2022/09/25 01:04:06;;;;;;;5.57;2.35;;;9.30;99.90;;;;;;5053752;28;20493;-66
2022/09/25 01:06:33;;;;;;;7.25;2.50;;;9.30;99.90;;;;;;5053998;28;20104;-66
2022/09/25 01:08:59;;;;;;;6.10;2.70;;;9.30;99.90;;;;;;5054182;28;20060;-66
2022/09/25 01:11:25;;;;;;;6.47;2.88;;;9.30;99.90;;;;;;5052106;28;20056;-65
2022/09/25 01:13:54;;;;;;;4.07;2.50;;;9.20;99.90;;;;;;5054030;28;20077;-66
2022/09/25 01:16:40;;;;;;;6.70;2.83;;;9.20;99.90;;;;;;5054271;28;20037;-65
2022/09/25 01:19:14;;;;;;;7.25;2.70;;;9.20;99.90;;;;;;5053497;28;20028;-66
2022/09/25 01:21:52;;;;;;;11.27;3.05;;;9.20;99.90;;;;;;5053812;28;20342;-66
2022/09/25 01:24:41;;;;;;;5.18;2.70;;;9.20;99.90;;;;;;5053866;28;20021;-66
2022/09/25 01:27:28;;;;;;;5.00;2.22;;;9.10;99.90;;;;;;5053410;28;20528;-65
2022/09/25 01:30:13;;;;;;;6.15;2.67;;;9.10;99.90;;;;;;5054026;28;20041;-66
2022/09/25 01:33:04;;;;;;;4.30;2.42;;;9.10;99.90;;;;;;5053204;28;20043;-66
2022/09/25 01:35:36;;;;;;;4.63;2.30;;;9.00;99.90;;;;;;5053678;28;20025;-65
2022/09/25 01:38:15;;;;;;;5.30;2.42;;;9.00;99.90;;;;;;5053575;28;20025;-65
2022/09/25 01:41:09;;;;;;;7.97;2.30;;;8.90;99.90;;;;;;5052819;28;20052;-65
2022/09/25 01:43:51;;;;;;;5.45;2.50;;;8.90;99.90;;;;;;5053129;28;20565;-65
2022/09/25 01:46:21;;;;;;;6.55;2.40;;;9.00;99.90;;;;;;5052654;28;20025;-65
2022/09/25 01:48:53;;;;;;;4.55;2.10;;;9.00;99.90;;;;;;5053432;28;20479;-65
2022/09/25 01:51:42;;;;;;;4.18;2.08;;;9.00;99.90;;;;;;5053454;28;20033;-65
2022/09/25 01:54:13;;;;;;;6.05;2.60;;;9.00;99.90;;;;;;5053016;28;20037;-65
2022/09/25 01:56:49;;;;;;;9.10;2.70;;;9.00;99.90;;;;;;5053118;28;20052;-66
2022/09/25 01:59:33;;;;;;;5.05;2.35;;;9.00;99.90;;;;;;5053701;28;20032;-66
2022/09/25 02:02:01;;;;;;;9.40;2.55;;;9.00;99.90;;;;;;5052898;28;20227;-66
2022/09/25 02:04:35;;;;;;;4.65;2.03;;;8.90;99.90;;;;;;5053296;28;20037;-67
2022/09/25 02:07:05;;;;;;;5.63;2.15;;;8.90;99.90;;;;;;5053461;28;20025;-66
2022/09/25 02:09:46;;;;;;;4.38;2.40;;;8.90;99.90;;;;;;5058829;28;20060;-66
2022/09/25 02:12:20;;;;;;;4.57;2.25;;;8.90;99.90;;;;;;5059697;28;20031;-66
2022/09/25 02:15:27;;;;;;;5.47;2.17;;;8.90;99.90;;;;;;5052971;28;20098;-67
2022/09/25 02:21:00;;;;;;;5.75;2.60;;;8.90;99.90;;;;;;5053157;28;20040;-67
2022/09/25 02:23:55;;;;;;;4.38;2.05;;;8.90;99.90;;;;;;5052004;28;20068;-67
2022/09/25 02:26:29;;;;;;;3.70;2.17;;;8.80;99.90;;;;;;5051208;28;20033;-66
2022/09/25 02:28:56;;;;;;;7.55;2.42;;;8.80;99.90;;;;;;5051977;28;20052;-67
2022/09/25 02:31:34;;;;;;;4.22;2.00;;;8.80;99.90;;;;;;5052755;28;20025;-67
2022/09/25 02:34:00;;;;;;;4.13;2.58;;;8.80;99.90;;;;;;5050996;28;20028;-66
2022/09/25 02:36:25;;;;;;;5.50;2.47;;;8.70;99.90;;;;;;5061722;28;20024;-67
2022/09/25 02:38:54;;;;;;;5.10;2.20;;;8.70;99.90;;;;;;5072227;28;20028;-67
2022/09/25 02:41:41;;;;;;;5.25;2.40;;;8.70;99.90;;;;;;5055046;28;20469;-67
2022/09/25 02:44:18;;;;;;;4.43;1.90;;;8.70;99.90;;;;;;5051723;28;20029;-67
2022/09/25 02:47:12;;;;;;;5.25;2.40;;;8.70;99.90;;;;;;5052165;28;20029;-65
2022/09/25 02:50:12;;;;;;;4.82;2.00;;;8.70;99.90;;;;;;5051194;28;20489;-65
2022/09/25 02:52:40;;;;;;;3.95;2.08;;;8.60;99.90;;;;;;5061382;28;20044;-66
2022/09/25 02:55:44;;;;;;;4.90;2.30;;;8.60;99.90;;;;;;5066944;28;20025;-66
2022/09/25 02:58:23;;;;;;;7.05;2.28;;;8.60;99.90;;;;;;5054535;28;20119;-67
2022/09/25 03:00:52;;;;;;;4.18;1.88;;;8.60;99.90;;;;;;5051226;28;20197;-66
2022/09/25 03:03:19;;;;;;;7.25;2.22;;;8.50;99.90;;;;;;5050215;28;20032;-67
2022/09/25 03:05:49;;;;;;;5.80;2.13;;;8.50;99.90;;;;;;5049463;28;20480;-67
2022/09/25 03:11:00;;;;;;;3.65;1.88;;;8.40;99.90;;;;;;5031525;28;20133;-67
2022/09/25 03:13:33;;;;;;;7.63;2.10;;;8.40;99.90;;;;;;5050884;28;20115;-66
2022/09/25 03:16:07;;;;;;;4.03;1.58;;;8.40;99.90;;;;;;5050955;28;20025;-66
2022/09/25 03:18:33;;;;;;;5.40;1.70;;;8.30;99.90;;;;;;5049588;28;20041;-66
2022/09/25 03:20:59;;;;;;;3.45;1.50;;;8.30;99.90;;;;;;5050257;28;20046;-66
2022/09/25 03:23:25;;;;;;;6.00;1.83;;;8.20;99.90;;;;;;5070620;28;20052;-67
2022/09/25 03:25:54;;;;;;;3.80;1.70;;;8.20;99.90;;;;;;5066133;28;20024;-67
2022/09/25 03:28:21;;;;;;;3.28;1.55;;;8.20;99.90;;;;;;5071481;28;20067;-66
2022/09/25 03:31:01;;;;;;;2.00;1.20;;;8.20;99.90;;;;;;5057911;28;20041;-65
2022/09/25 03:33:29;;;;;;;3.67;1.45;;;8.10;99.90;;;;;;5051517;28;20047;-65
2022/09/25 03:36:22;;;;;;;3.78;1.55;;;8.10;99.90;;;;;;5051142;28;20193;-66
2022/09/25 03:38:50;;;;;;;2.50;1.30;;;8.00;99.90;;;;;;5049856;28;20557;-65
2022/09/25 03:41:19;;;;;;;2.30;1.50;;;8.00;99.90;;;;;;5052108;28;20056;-66
2022/09/25 03:43:46;;;;;;;1.48;1.13;;;8.00;99.90;;;;;;5036706;28;20036;-66
2022/09/25 03:46:15;;;;;;;3.50;1.42;;;8.00;99.90;;;;;;5031466;28;20498;-65
2022/09/25 03:48:41;;;;;;;5.47;1.63;;;8.00;99.90;;;;;;5032091;28;20028;-66
2022/09/25 03:51:08;;;;;;;3.53;1.90;;;8.00;99.90;;;;;;5031901;28;20378;-66
2022/09/25 03:53:34;;;;;;;2.50;1.48;;;8.00;99.90;;;;;;5031552;28;20045;-66
2022/09/25 03:56:01;;;;;;;5.50;1.95;;;8.00;99.90;;;;;;5032320;28;20097;-66
2022/09/25 03:58:28;;;;;;;4.85;1.95;;;8.00;99.90;;;;;;5032252;28;20021;-66
2022/09/25 04:00:56;;;;;;;5.25;1.38;;;8.00;99.90;;;;;;5030211;28;20022;-66
2022/09/25 04:03:22;;;;;;;2.58;1.50;;;8.00;99.90;;;;;;5032113;28;20056;-66
2022/09/25 04:05:49;;;;;;;3.85;1.70;;;8.00;99.90;;;;;;5032334;28;20045;-66
2022/09/25 04:08:15;;;;;;;4.10;1.75;;;7.90;99.90;;;;;;5031488;28;20021;-66
2022/09/25 04:10:41;;;;;;;3.13;1.52;;;7.90;99.90;;;;;;5032116;28;20074;-66
2022/09/25 04:13:11;;;;;;;6.43;1.80;;;8.00;99.90;;;;;;5032082;28;20442;-66
2022/09/25 04:15:38;;;;;;;4.78;1.92;;;8.00;99.90;;;;;;5031132;28;20029;-66
2022/09/25 04:18:05;;;;;;;6.93;1.67;;;8.00;99.90;;;;;;5034912;28;20021;-66
2022/09/25 04:20:31;;;;;;;4.93;2.20;;;8.00;99.90;;;;;;5038001;28;20025;-66
2022/09/25 04:22:56;;;;;;;2.92;1.60;;;8.00;99.90;;;;;;5031913;28;20088;-66
2022/09/25 04:25:24;;;;;;;3.72;1.60;;;8.00;99.90;;;;;;5032076;28;20101;-66
2022/09/25 04:27:57;;;;;;;5.65;1.85;;;8.00;99.90;;;;;;5031482;28;20078;-66
2022/09/25 04:30:24;;;;;;;4.63;1.80;;;8.00;99.90;;;;;;5031778;28;20343;-66
2022/09/25 04:35:34;;;;;;;3.28;1.38;;;8.00;99.90;;;;;;5035046;28;20041;-66
2022/09/25 04:38:00;;;;;;;2.75;1.40;;;8.00;99.90;;;;;;5035673;28;20017;-66
2022/09/25 04:40:27;;;;;;;2.13;1.38;;;8.00;99.90;;;;;;5035499;28;20067;-66
2022/09/25 04:42:57;;;;;;;4.50;1.85;;;8.00;99.90;;;;;;5034790;28;20025;-66
2022/09/25 04:45:25;;;;;;;4.53;1.52;;;8.00;99.90;;;;;;5035255;28;20024;-66
2022/09/25 04:47:52;;;;;;;5.18;1.60;;;8.00;99.90;;;;;;5035001;28;20103;-66
2022/09/25 04:50:19;;;;;;;2.47;1.33;;;7.90;99.90;;;;;;5034917;28;20038;-67
2022/09/25 04:52:44;;;;;;;2.67;1.50;;;8.00;99.90;;;;;;5035235;28;20049;-66
2022/09/25 04:55:10;;;;;;;4.97;1.40;;;7.90;99.90;;;;;;5035345;28;20033;-66
2022/09/25 04:57:35;;;;;;;5.05;1.75;;;7.90;99.90;;;;;;5038822;28;20896;-66
2022/09/25 05:00:01;;;;;;;3.90;1.60;;;7.90;99.90;;;;;;5054420;28;20116;-66
2022/09/25 05:02:27;;;;;;;3.63;1.58;;;7.90;99.90;;;;;;5054785;28;20017;-66
2022/09/25 05:04:53;;;;;;;5.50;1.73;;;7.90;99.90;;;;;;5054123;28;20029;-66
2022/09/25 05:07:18;;;;;;;2.70;1.20;;;7.90;99.90;;;;;;5054288;28;20514;-66
2022/09/25 05:09:44;;;;;;;2.88;1.20;;;7.90;99.90;;;;;;5059044;28;20572;-66
2022/09/25 05:12:10;;;;;;;5.05;1.88;;;7.90;99.90;;;;;;5074355;28;20021;-66
2022/09/25 05:14:35;;;;;;;1.85;1.08;;;7.80;99.90;;;;;;5074554;28;20020;-66
2022/09/25 05:17:02;;;;;;;3.20;1.13;;;7.80;99.90;;;;;;5074237;28;20030;-66
2022/09/25 05:19:27;;;;;;;1.50;1.10;;;7.70;99.90;;;;;;5074090;28;20533;-66
2022/09/25 05:21:53;;;;;;;2.17;1.20;;;7.70;99.90;;;;;;5074241;28;20020;-66
2022/09/25 05:24:18;;;;;;;2.55;1.30;;;7.70;99.90;;;;;;5070598;28;20077;-66
2022/09/25 05:26:44;;;;;;;2.38;1.30;;;7.60;99.90;;;;;;5054977;28;20450;-66
2022/09/25 05:29:09;;;;;;;5.07;1.40;;;7.60;99.90;;;;;;5053968;28;20048;-66
2022/09/25 05:31:37;;;;;;;2.30;1.25;;;7.60;99.90;;;;;;5053246;28;20039;-66
2022/09/25 05:34:02;;;;;;;2.35;1.17;;;7.60;99.90;;;;;;5053978;28;20028;-66
2022/09/25 05:36:28;;;;;;;5.40;1.52;;;7.60;99.90;;;;;;5053771;28;20017;-66
2022/09/25 05:38:55;;;;;;;4.30;1.45;;;7.60;99.90;;;;;;5053256;28;20364;-66
2022/09/25 05:41:20;;;;;;;5.07;1.23;;;7.60;99.90;;;;;;5053937;28;20078;-66
2022/09/25 05:43:46;;;;;;;1.65;1.02;;;7.60;99.90;;;;;;5052884;28;20021;-66
2022/09/25 05:46:12;;;;;;;1.25;1.00;;;7.50;99.90;;;;;;5053299;28;20025;-66
2022/09/25 05:48:39;;;;;;;1.35;1.25;;;7.50;99.90;;;;;;5053630;28;20044;-66
2022/09/25 05:51:05;;;;;;;2.00;1.30;;;7.50;99.90;;;;;;5054123;28;20373;-65
2022/09/25 05:53:31;;;;;;;2.00;1.20;;;7.50;99.90;;;;;;5052516;28;20091;-65
2022/09/25 05:55:59;;;;;;;2.05;1.17;;;7.50;99.90;;;;;;5053383;28;20025;-65
2022/09/25 05:58:27;;;;;;;1.45;0.98;;;7.50;99.90;;;;;;5052321;28;20021;-65
2022/09/25 06:00:53;;;;;;;5.95;1.40;;;7.50;99.90;;;;;;5053077;28;20030;-66
2022/09/25 06:03:20;;;;;;;4.53;1.20;;;7.60;99.90;;;;;;5053120;28;20395;-66
2022/09/25 06:05:46;;;;;;;3.10;1.40;;;7.60;99.90;;;;;;5053458;28;20493;-65
2022/09/25 06:08:13;;;;;;;4.43;1.73;;;7.70;99.90;;;;;;5053076;28;20017;-65
2022/09/25 06:10:39;;;;;;;4.07;1.50;;;7.70;99.90;;;;;;5053455;28;20025;-66
2022/09/25 06:13:05;;;;;;;3.90;1.73;;;7.80;99.90;;;;;;5054765;28;20029;-66
2022/09/25 06:15:36;;;;;;;6.53;2.00;;;7.90;99.90;;;;;;5050190;28;20029;-66
2022/09/25 06:18:04;;;;;;;5.80;2.05;;;7.90;99.90;;;;;;5053019;28;20025;-66
2022/09/25 06:20:29;;;;;;;3.97;1.23;;;8.00;99.90;;;;;;5053256;28;20097;-65
2022/09/25 06:22:56;;;;;;;5.25;1.80;;;8.00;99.90;;;;;;5053747;28;20171;-65
2022/09/25 06:25:24;;;;;;;4.15;2.05;;;8.00;99.90;;;;;;5056105;28;20025;-66
2022/09/25 06:27:55;;;;;;;4.90;1.70;;;8.00;99.90;;;;;;5038601;28;20032;-64
2022/09/25 06:30:23;;;;;;;4.88;1.55;;;8.00;99.90;;;;;;5037476;28;20120;-65
2022/09/25 06:32:55;;;;;;;5.43;1.88;;;8.10;99.90;;;;;;5038015;28;20465;-65
2022/09/25 06:35:20;;;;;;;2.88;1.73;;;8.10;99.90;;;;;;5063779;28;20078;-64
2022/09/25 06:37:46;;;;;;;4.25;1.98;;;8.20;99.90;;;;;;5052903;28;20059;-65
2022/09/25 06:40:11;;;;;;;3.53;1.92;;;8.30;99.90;;;;;;5052953;28;20020;-65
2022/09/25 06:42:37;;;;;;;7.93;2.42;;;8.40;99.90;;;;;;5052390;28;20025;-64
2022/09/25 06:45:03;;;;;;;11.23;2.28;;;8.50;99.90;;;;;;5052720;28;20029;-65
2022/09/25 06:47:29;;;;;;;5.00;2.35;;;8.60;99.90;;;;;;5052885;28;20032;-66
2022/09/25 06:49:54;;;;;;;4.65;1.90;;;8.70;99.90;;;;;;5052374;28;20527;-66
2022/09/25 06:52:20;;;;;;;4.90;1.75;;;8.90;99.90;;;;;;5052781;28;20037;-65
2022/09/25 06:54:46;;;;;;;5.85;2.33;;;8.90;99.90;;;;;;5052954;28;20028;-66
2022/09/25 06:57:11;;;;;;;7.00;2.42;;;9.00;99.90;;;;;;5051763;28;20481;-65
2022/09/25 06:59:37;;;;;;;3.45;1.70;;;9.10;99.90;;;;;;5054115;28;20067;-66
2022/09/25 07:03:43;;;;;;;6.75;2.13;;;9.20;99.90;;;;;;5052728;28;20053;-64
2022/09/25 07:04:51;;;;;;;6.18;2.30;;;9.30;99.90;;;;;;5051876;28;20110;-65
2022/09/25 07:07:23;;;;;;;3.28;2.00;;;9.40;99.90;;;;;;5052380;28;20024;-64
2022/09/25 07:09:48;;;;;;;;;;;9.40;99.90;;;;;;5052390;28;20082;-65
2022/09/25 07:12:16;;;;;;;4.55;1.90;;;9.50;99.90;;;;;;5051603;28;19908;-65
2022/09/25 07:14:43;;;;;;;7.18;2.40;;;9.60;99.90;;;;;;5052240;28;20040;-65
2022/09/25 07:17:08;;;;;;;6.18;2.33;;;9.70;99.90;;;;;;5051807;28;20025;-65
2022/09/25 07:19:34;;;;;;;4.93;2.40;;;9.80;99.90;;;;;;5052099;28;20021;-65
2022/09/25 07:22:00;;;;;;;8.70;2.20;;;9.90;99.90;;;;;;5052333;28;20032;-65
2022/09/25 07:24:25;;;;;;;6.68;2.13;;;10.00;99.90;;;;;;5051217;28;20100;-66
2022/09/25 07:26:51;;;;;;;3.58;1.95;;;10.10;99.90;;;;;;5052461;28;20025;-65
2022/09/25 07:29:18;;;;;;;5.45;2.28;;;10.20;99.90;;;;;;5051721;28;20384;-65
2022/09/25 07:31:43;;;;;;;5.13;2.35;;;10.20;99.90;;;;;;5051750;28;20021;-65
2022/09/25 07:34:11;;;;;;;4.55;2.20;;;10.30;99.90;;;;;;5052232;28;20516;-65
2022/09/25 07:36:38;;;;;;;8.00;2.15;;;10.40;99.90;;;;;;5052061;28;20029;-65
2022/09/25 07:39:05;;;;;;;5.88;2.22;;;10.50;99.90;;;;;;5051143;28;20025;-65
2022/09/25 07:41:31;;;;;;;6.32;1.98;;;10.60;99.90;;;;;;5057227;28;20382;-66
2022/09/25 07:43:58;;;;;;;4.90;1.75;;;10.70;99.90;;;;;;5052620;28;20013;-65
2022/09/25 07:46:25;;;;;;;3.88;1.90;;;10.80;99.90;;;;;;5051579;28;20078;-65
2022/09/25 07:48:50;;;;;;;6.43;2.38;;;10.90;99.90;;;;;;5051459;28;20580;-65
2022/09/25 07:51:17;;;;;;;4.13;1.65;;;11.00;99.90;;;;;;5050545;28;20135;-65
2022/09/25 07:53:43;;;;;;;4.85;1.77;;;11.10;99.90;;;;;;5049440;28;20049;-65
2022/09/25 07:56:12;;;;;;;7.05;1.67;;;11.20;99.90;;;;;;5050962;28;20580;-65
2022/09/25 07:58:38;;;;;;;2.78;1.48;;;11.30;99.90;;;;;;5051057;28;20458;-66
2022/09/25 08:01:06;;;;;;;4.60;1.70;;;11.40;99.90;;;;;;5050636;28;20021;-66
2022/09/25 08:03:32;;;;;;;9.70;2.20;;;11.50;99.90;;;;;;5050763;28;20093;-66
2022/09/25 08:06:02;;;;;;;6.30;2.22;;;11.60;99.90;;;;;;5051094;28;20078;-66
2022/09/25 08:08:28;;;;;;;4.13;1.60;;;11.60;99.90;;;;;;5054578;28;20025;-66
2022/09/25 08:11:03;;;;;;;3.58;1.60;;;11.70;99.90;;;;;;5054809;28;20025;-65
2022/09/25 08:13:31;;;;;;;3.67;1.70;;;11.80;99.90;;;;;;5054028;28;20401;-65
2022/09/25 08:15:57;;;;;;;3.33;1.40;;;11.90;99.90;;;;;;5054297;28;20036;-64
2022/09/25 08:18:22;;;;;;;4.32;1.55;;;11.90;99.90;;;;;;5054965;28;20021;-64
2022/09/25 08:20:48;;;;;;;3.38;1.40;;;12.00;99.90;;;;;;5054152;28;20049;-63
2022/09/25 08:23:13;;;;;;;3.50;1.45;;;12.10;99.90;;;;;;5064015;28;20016;-63
2022/09/25 08:25:39;;;;;;;2.65;1.40;;;12.10;99.90;;;;;;5062526;28;20800;-64
2022/09/25 08:28:05;;;;;;;2.22;1.10;;;12.20;99.90;;;;;;5052961;28;20033;-64
2022/09/25 08:30:31;;;;;;;6.15;1.50;;;12.30;99.90;;;;;;5054378;28;20040;-63
2022/09/25 08:32:57;;;;;;;2.83;1.50;;;12.30;99.90;;;;;;5058246;28;20025;-63
2022/09/25 08:35:23;;;;;;;2.92;1.58;;;12.30;99.90;;;;;;5057527;28;20116;-63
2022/09/25 08:37:48;;;;;;;2.90;1.33;;;12.50;99.90;;;;;;5064066;28;20378;-63
2022/09/25 08:40:21;;;;;;;2.90;1.10;;;12.50;99.90;;;;;;5055625;28;20529;-64
2022/09/25 08:42:49;;;;;;;4.75;1.52;;;12.60;99.90;;;;;;5054511;28;20429;-63
2022/09/25 08:51:25;;;;;;;2.13;1.10;;;12.80;99.90;;;;;;5039791;28;20054;-64
2022/09/25 08:53:50;;;;;;;3.10;1.23;;;12.90;99.90;;;;;;5059229;28;20044;-64
2022/09/25 08:56:16;;;;;;;4.47;1.33;;;13.00;99.90;;;;;;5050216;28;20028;-64
2022/09/25 08:59:00;;;;;;;3.80;1.50;;;13.00;99.90;;;;;;5053297;28;20029;-63
2022/09/25 09:01:35;;;;;;;2.47;1.17;;;13.20;99.90;;;;;;5053234;28;20102;-64
2022/09/25 09:04:12;;;;;;;2.45;1.30;;;13.20;99.90;;;;;;5051524;28;20025;-63
2022/09/25 09:06:41;;;;;;;3.15;0.80;;;13.40;99.90;;;;;;5044884;28;20037;-63
2022/09/25 09:09:12;;;;;;;2.13;0.88;;;13.40;99.90;;;;;;5052416;28;20044;-63
2022/09/25 09:11:56;;;;;;;1.00;0.90;;;13.50;99.90;;;;;;5051824;28;20029;-64
2022/09/25 09:14:25;;;;;;;3.83;1.02;;;13.50;99.90;;;;;;5054199;28;20020;-64
2022/09/25 09:16:58;;;;;;;2.65;0.80;;;13.60;99.90;;;;;;5071501;28;20020;-64
2022/09/25 09:19:24;;;;;;;2.55;1.23;;;13.70;99.90;;;;;;5071734;28;20013;-64
2022/09/25 09:22:09;;;;;;;2.13;1.00;;;13.70;99.90;;;;;;5061354;28;20120;-63
2022/09/25 09:24:54;;;;;;;2.33;1.02;;;13.70;99.90;;;;;;5052636;28;20021;-64
2022/09/25 09:28:10;;;;;;;1.73;0.80;;;13.70;99.90;;;;;;5053037;28;20033;-63
2022/09/25 09:30:43;;;;;;;3.10;1.00;;;13.50;99.90;;;;;;5047949;28;20346;-63
2022/09/25 09:33:35;;;;;;;5.15;0.95;;;13.40;99.90;;;;;;5053164;28;20021;-63
2022/09/25 09:36:41;;;;;;;2.28;0.70;;;13.50;99.90;;;;;;5052690;28;20025;-65
2022/09/25 09:39:31;;;;;;;3.78;1.20;;;13.50;99.90;;;;;;5053429;28;20033;-65
2022/09/25 09:42:16;;;;;;;1.30;0.63;;;13.70;99.60;;;;;;5054082;28;20481;-64
2022/09/25 09:45:02;;;;;;;2.92;1.15;;;13.80;99.70;;;;;;5053437;28;20487;-65
2022/09/25 09:47:47;;;;;;;2.88;1.00;;;13.90;99.20;;;;;;5031165;28;20044;-63
2022/09/25 09:50:43;;;;;;;2.22;1.20;;;14.20;99.10;;;;;;5033360;28;20482;-64
2022/09/25 09:53:33;;;;;;;3.58;1.05;;;14.40;98.50;;;;;;5054942;28;20053;-63
2022/09/25 09:56:21;;;;;;;1.23;0.80;;;14.60;97.70;;;;;;5054965;28;20028;-64
2022/09/25 09:59:24;;;;;;;3.35;0.90;;;14.70;96.80;;;;;;5051849;28;20036;-63
2022/09/25 10:02:12;;;;;;;2.95;0.60;;;14.80;96.50;;;;;;5053172;28;20047;-63
2022/09/25 10:04:39;;;;;;;1.85;0.93;;;14.90;95.90;;;;;;5051885;28;20106;-64
2022/09/25 10:07:13;;;;;;;2.13;0.70;;;15.00;95.40;;;;;;5055629;28;20388;-64
2022/09/25 10:09:39;;;;;;;6.03;0.75;;;15.20;95.60;;;;;;5052304;28;20037;-65
2022/09/25 10:12:14;;;;;;;1.98;0.73;;;15.40;94.30;;;;;;5051498;28;20032;-65
2022/09/25 10:14:46;;;;;;;4.13;0.90;;;15.50;93.20;;;;;;5052991;28;20032;-65
2022/09/25 10:17:14;;;;;;;3.60;0.70;;;15.60;92.00;;;;;;5056082;28;20104;-65
2022/09/25 10:20:02;;;;;;;4.43;0.90;;;15.60;92.70;;;;;;5041340;28;20374;-66
2022/09/25 10:22:41;;;;;;;2.22;0.70;;;15.60;91.60;;;;;;5053795;28;20025;-67
2022/09/25 10:25:07;;;;;;;2.35;0.70;;;15.40;91.50;;;;;;5044876;28;20035;-64
2022/09/25 10:27:48;;;;;;;2.88;0.80;;;15.20;91.60;;;;;;5051656;28;20025;-63
2022/09/25 10:30:17;;;;;;;2.58;0.70;;;14.90;92.00;;;;;;5057097;28;20025;-64
2022/09/25 10:33:12;;;;;;;4.70;0.70;;;14.60;92.50;;;;;;5040592;28;20029;-63
2022/09/25 10:35:37;;;;;;;1.98;0.60;;;14.50;93.00;;;;;;5050428;28;20098;-63
2022/09/25 10:38:05;;;;;;;1.00;0.70;;;14.50;92.40;;;;;;5051815;28;20083;-63
2022/09/25 10:40:34;;;;;;;1.83;0.63;;;14.60;92.80;;;;;;5059796;28;20033;-64
2022/09/25 10:43:22;;;;;;;2.20;0.60;;;14.70;91.80;;;;;;5059972;28;20044;-64
2022/09/25 10:46:04;;;;;;;0.95;0.52;;;14.90;91.40;;;;;;5058774;28;20029;-64
2022/09/25 10:51:22;;;;;;;3.15;0.80;;;15.30;90.40;;;;;;5052664;28;20098;-63
2022/09/25 10:54:08;;;;;;;2.28;0.63;;;15.50;88.40;;;;;;5052772;28;20048;-64
2022/09/25 10:56:36;;;;;;;2.97;0.60;;;15.60;88.10;;;;;;5050868;28;20035;-64
2022/09/25 10:59:08;;;;;;;1.20;0.65;;;15.70;87.50;;;;;;5052263;28;20056;-63
2022/09/25 11:01:36;;;;;;;;;;;15.80;87.50;;;;;;5052914;28;20117;-64
2022/09/25 11:04:23;;;;;;;1.63;0.77;;;15.90;86.30;;;;;;5052176;28;20374;-65
2022/09/25 11:06:52;;;;;;;1.67;0.63;;;15.90;86.10;;;;;;5049738;28;20040;-65
2022/09/25 11:09:20;;;;;;;0.73;0.52;;;16.00;86.40;;;;;;5051033;28;20462;-65
2022/09/25 11:11:48;;;;;;;0.68;0.43;;;15.90;85.00;;;;;;5052400;28;20028;-65
2022/09/25 11:14:31;;;;;;;1.05;0.60;;;15.80;83.40;;;;;;5051816;28;20021;-65
2022/09/25 11:16:58;;;;;;;2.20;0.75;;;15.70;83.60;;;;;;5050845;28;20390;-65
2022/09/25 11:19:35;;;;;;;1.58;0.65;;;15.60;82.70;;;;;;5049103;28;20025;-66
2022/09/25 11:22:11;;;;;;;4.55;0.70;;;15.60;84.50;;;;;;5049836;28;20074;-66
2022/09/25 11:25:00;;;;;;;1.13;0.70;;;15.50;85.10;;;;;;5052715;28;20025;-66
2022/09/25 11:27:31;;;;;;;1.30;0.60;;;15.60;84.50;;;;;;5052464;28;20025;-65
2022/09/25 11:30:08;;;;;;;1.60;0.60;;;15.60;83.70;;;;;;5051571;28;20041;-65
2022/09/25 11:33:00;;;;;;;1.00;0.68;;;15.70;82.90;;;;;;5052116;28;20059;-65
2022/09/25 11:35:35;;;;;;;2.55;0.80;;;15.70;81.80;;;;;;5051612;28;20121;-65
2022/09/25 11:41:10;;;;;;;0.80;0.60;;;15.80;81.00;;;;;;5052334;28;20041;-65
2022/09/25 11:41:11;;;;;;;1.58;0.65;;;15.70;80.80;;;;;;5053232;28;20033;-65
2022/09/25 11:43:45;;;;;;;0.93;0.30;;;15.80;80.60;;;;;;5055499;28;20106;-65
2022/09/25 11:46:20;;;;;;;2.67;0.52;;;15.80;79.50;;;;;;5056781;28;20029;-65
2022/09/25 11:48:55;;;;;;;0.70;0.50;;;15.90;79.90;;;;;;5056346;28;20029;-65
2022/09/25 11:51:58;;;;;;;1.30;0.35;;;16.00;78.60;;;;;;5055372;28;20033;-65
2022/09/25 11:54:40;;;;;;;2.15;0.73;;;16.00;78.00;;;;;;5055807;28;20561;-65
2022/09/25 11:57:20;;;;;;;1.92;0.55;;;16.10;77.10;;;;;;5054080;28;20025;-66
2022/09/25 12:00:04;;;;;;;1.73;0.82;;;16.10;77.70;;;;;;5055978;28;20028;-66
2022/09/25 12:03:08;;;;;;;1.95;0.30;;;16.20;76.80;;;;;;5056238;28;20354;-66
2022/09/25 12:05:52;;;;;;;4.43;0.73;;;16.30;76.70;;;;;;5055577;28;20040;-66
2022/09/25 12:08:56;;;;;;;0.90;0.50;;;16.30;76.60;;;;;;5055685;28;20025;-66
2022/09/25 12:11:44;;;;;;;1.08;0.68;;;16.40;77.00;;;;;;5055445;28;20036;-66
2022/09/25 12:14:39;;;;;;;1.42;0.68;;;16.60;76.40;;;;;;5055688;28;20519;-66
2022/09/25 12:17:16;;;;;;;2.55;0.50;;;16.70;75.40;;;;;;5055681;28;20021;-66
2022/09/25 12:20:20;;;;;;;1.90;0.60;;;16.80;75.20;;;;;;5055501;28;20056;-66
2022/09/25 12:23:07;;;;;;;2.00;0.68;;;16.80;75.00;;;;;;5033136;28;20025;-65
2022/09/25 12:25:49;;;;;;;1.00;0.63;;;16.90;75.40;;;;;;5053710;28;20029;-66
2022/09/25 12:28:23;;;;;;;2.50;0.73;;;17.00;73.70;;;;;;5055284;28;20021;-66
2022/09/25 12:30:49;;;;;;;1.02;0.40;;;17.00;68.30;;;;;;5055337;28;20482;-66
2022/09/25 12:33:20;;;;;;;2.80;0.90;;;17.00;68.60;;;;;;5054749;28;20056;-65
2022/09/25 12:35:58;;;;;;;2.85;0.40;;;17.20;68.50;;;;;;5055347;28;20035;-67
2022/09/25 12:38:47;;;;;;;3.17;0.90;;;17.30;66.20;;;;;;5054541;28;20056;-66
2022/09/25 12:41:15;;;;;;;1.50;0.40;;;17.40;64.60;;;;;;5055285;28;20033;-65
2022/09/25 12:43:51;;;;;;;3.33;0.40;;;17.40;64.70;;;;;;5054801;28;20040;-66
2022/09/25 12:46:29;;;;;;;2.40;0.60;;;17.40;66.10;;;;;;5054764;28;20374;-65
2022/09/25 12:48:55;;;;;;;1.35;0.50;;;17.50;67.50;;;;;;5055202;28;20461;-65
2022/09/25 12:51:39;;;;;;;1.83;0.40;;;17.50;69.30;;;;;;5065027;28;20087;-65
2022/09/25 12:54:11;;;;;;;0.60;0.40;;;17.40;68.10;;;;;;5055469;28;20076;-65
2022/09/25 12:56:47;;;;;;;0.77;0.45;;;17.30;68.40;;;;;;5055293;28;20025;-65
2022/09/25 12:59:15;;;;;;;1.35;0.50;;;17.20;69.50;;;;;;5054815;28;20049;-65
2022/09/25 13:02:05;;;;;;;3.67;0.50;;;17.00;70.30;;;;;;5054262;28;20061;-66
2022/09/25 13:05:04;;;;;;;3.35;0.50;;;16.80;72.60;;;;;;5054633;28;20029;-65
2022/09/25 13:07:48;;;;;;;1.75;0.57;;;16.60;75.00;;;;;;5053994;28;20478;-66
2022/09/25 13:10:24;;;;;;;1.77;0.60;;;16.40;76.40;;;;;;5054828;28;20068;-66
2022/09/25 13:12:54;;;;;;;2.17;0.50;;;16.20;77.80;;;;;;5054877;28;20025;-65
2022/09/25 13:15:41;;;;;;;1.67;0.63;;;16.10;79.30;;;;;;5053806;28;20082;-66
2022/09/25 13:18:16;;;;;;;1.25;0.80;;;16.10;80.40;;;;;;5054408;28;20510;-66
2022/09/25 13:20:53;;;;;;;1.73;0.47;;;16.00;80.70;;;;;;5053841;28;20025;-65
2022/09/25 13:23:31;;;;;;;1.58;0.50;;;16.00;80.50;;;;;;5054352;28;20457;-65
2022/09/25 13:26:12;;;;;;;0.90;0.50;;;16.10;80.90;;;;;;5054379;28;20071;-65
2022/09/25 13:28:46;;;;;;;0.88;0.57;;;16.20;81.20;;;;;;5053706;28;20044;-65
2022/09/25 13:31:28;;;;;;;0.68;0.60;;;16.30;80.60;;;;;;5054646;28;20029;-65
2022/09/25 13:33:59;;;;;;;1.90;0.70;;;16.40;80.50;;;;;;5054312;28;20021;-66
2022/09/25 13:36:25;;;;;;;3.40;0.77;;;16.40;80.90;;;;;;5052343;28;20079;-66
2022/09/25 13:42:06;;;;;;;1.27;0.60;;;16.50;78.70;;;;;;5053528;28;20028;-65
2022/09/25 13:44:41;;;;;;;0.57;0.50;;;16.40;78.60;;;;;;5052944;28;20048;-65
2022/09/25 13:47:26;;;;;;;0.52;0.40;;;16.40;77.60;;;;;;5054008;28;20035;-65